METAR Data
IDs: Format: Raw Decoded Include TAF

Data at: 0135 UTC 24 Oct 2019

METAR for:KPEA (Pella Muni, IA, US)
Text:KPEA 240115Z AUTO 35007KT 10SM SCT017 SCT045 OVC060 06/03 A3005 RMK AO2 T00570025
Temperature: 5.7°C ( 42°F)
Dewpoint: 2.5°C ( 36°F) [RH = 80%]
Pressure (altimeter):30.05 inches Hg (1017.7 mb)
Winds:from the N (350 degrees) at 8 MPH (7 knots; 3.6 m/s)
Visibility:10 or more sm (16+ km)
Ceiling:6000 feet AGL
Clouds: scattered clouds at 1700 feet AGL, scattered clouds at 4500 feet AGL, overcast cloud deck at 6000 feet AGL
QC Flag:automated observation with no human augmentation